AirNav   Pilot Hours Calculator
 
 1089 users online  

IL61 Vienna Correctional Center Heliport
Grantsburg, Illinois, USA

GOING TO GRANTSBURG?


FAA INFORMATION EFFECTIVE 07 NOVEMBER 2019

Location

FAA Identifier: IL61
Lat/Long: 37-23-51.1870N 088-46-27.2110W
37-23.853117N 088-46.453517W
37.3975519,-88.7742253
(estimated)
Elevation: 510 ft. / 155 m (estimated)
Variation: 01E (1985)
From city: 2 miles E of GRANTSBURG, IL
Time zone: UTC -6 (UTC -5 during Daylight Saving Time)
Zip code: 62995

Heliport Operations

Heliport use: Private use. Permission required prior to landing
Activation date: 04/1988
Control tower: no
ARTCC: MEMPHIS CENTER
FSS: COLUMBIA FLIGHT SERVICE STATION
Attendance: UNATNDD
Wind indicator: yes
Segmented circle: no

Heliport Communications

WX AWOS-3 at M30 (13 nm S): 124.175 (618-524-7483)

Nearby radio navigation aids

VOR radial/distance  VOR name  Freq  Var
CNGr004/23.5CUNNINGHAM VOR/DME113.1003E
MWAr148/24.2MARION VOR/DME110.4004E
CGIr077/39.4CAPE GIRARDEAU VOR/DME112.9002W

 
NDB name  Hdg/Dist  Freq  Var  ID
CAIRO047/29.539700ECIR -.-. .. .-.

Heliport Services

Runway Information

Helipad H1

Dimensions: 60 x 60 ft. / 18 x 18 m
Surface: concrete
Traffic pattern: leftleft

Heliport Ownership and Management from official FAA records

Ownership: Publicly-owned
Owner: ILLINOIS DEPT OF CORRECTIONS
1301 CONCORDIA COURT
SPRINGFIELD, IL 62702
Phone 618-658-8371
Manager: WARDEN M. SWALLS
VIENNA C.C. 6695 ST, ROUTE 146 E
VIENNA, IL 62995
Phone 618-658-8371

Additional Remarks

FOR CD CTC MEMPHIS ARTCC AT 901-368-8453.

Instrument Procedures

There are no published instrument procedures at IL61.

Some nearby airports with instrument procedures:

KPAH - Barkley Regional Airport (20 nm S)
KMWA - Veterans Airport of Southern Illinois (24 nm NW)
KHSB - Harrisburg-Raleigh Airport (27 nm NE)
KCIR - Cairo Regional Airport (29 nm SW)
5M9 - Marion-Crittenden County Airport (32 nm E)
 
Loc | Ops | Rwys | IFR | FBO | Links
Com | Nav | Svcs | Stats | Notes
Area around IL61 (Vienna Correctional Center Heliport)
 
Road maps at: MapQuest Bing Google
 
Aerial photo
No photo
 
Sectional chart

 
Airport distance calculator
Flying to Vienna Correctional Center Heliport? Find the distance to fly.

From to IL61

Sunrise and sunset
Times for 11-Nov-2019
 Local
(UTC-6)
 Zulu
(UTC)
Morning civil twilight06:0412:04
Sunrise06:3112:31
Sunset16:4722:47
Evening civil twilight17:1523:15

Current date and time
Zulu (UTC)  11-Nov-2019 22:49:53
Local (UTC-6)  11-Nov-2019 16:49:53
 
METAR
KM30 
13nm S 
112235Z AUTO 34013G20KT 7SM DZ BKN009 OVC015 00/M02 A3023 RMK AO2 P0001 T10051021
KPAH 
20nm S 
112241Z 34019G26KT 7SM UP FEW008 BKN013 OVC018 00/M02 A3022 RMK AO2 PK WND 35029/2230 P0002 I1003 T00001022 $
KMWA 
24nm NW 
112232Z 36013G20KT 1SM -SN OVC009 M03/M04 A3026
TAF
KPAH 
20nm S 
112225Z 1122/1218 34013G22KT 3SM -FZRAPLSN BR OVC013 TEMPO 1122/1123 2SM -SNPL BR OVC010 FM112300 36021G31KT 1SM -SN BR OVC008 FM120300 35019G29KT 4SM -SN BR OVC010 FM120500 35018G28KT 6SM -SN BR OVC015 FM120800 36014G23KT P6SM SCT015
NOTAMs
Click for the latest NOTAMs
NOTAMs are issued by the DoD/FAA and will open in a separate window not controlled by AirNav.

 

 
 

Would you like to see your business listed on this page?

 If your business provides an interesting product or service to pilots, flight crews, aircraft, or users of the Vienna Correctional Center Heliport, you should consider listing it here.  To start the listing process, click on the button below
 
Add a business
 

Other Pages about Vienna Correctional Center Heliport

Update a link
 
Copyright © AirNav, LLC. All rights reserved. Privacy Policy  Contact